sensor_id;sensor_type;location;lat;lon;timestamp;P1;durP1;ratioP1;P2;durP2;ratioP2
41229;SDS011;26964;50.428;19.218;2024-02-16T00:00:21;191.4;;;77.7;;
41229;SDS011;26964;50.428;19.218;2024-02-16T00:01:21;180.2;;;74.9;;
41229;SDS011;26964;50.428;19.218;2024-02-16T00:03:22;221.9;;;86.8;;
41229;SDS011;26964;50.428;19.218;2024-02-16T00:04:20;182.3;;;73.1;;
41229;SDS011;26964;50.428;19.218;2024-02-16T00:05:20;173.4;;;72.8;;
41229;SDS011;26964;50.428;19.218;2024-02-16T00:06:20;143.7;;;68.4;;
41229;SDS011;26964;50.428;19.218;2024-02-16T00:07:21;153.0;;;68.7;;
41229;SDS011;26964;50.428;19.218;2024-02-16T00:08:20;121.7;;;56.5;;
41229;SDS011;26964;50.428;19.218;2024-02-16T00:09:19;117.2;;;57.1;;
41229;SDS011;26964;50.428;19.218;2024-02-16T00:10:19;94.8;;;52.4;;
41229;SDS011;26964;50.428;19.218;2024-02-16T00:11:19;90.7;;;47.4;;
41229;SDS011;26964;50.428;19.218;2024-02-16T00:12:19;81.0;;;45.6;;
41229;SDS011;26964;50.428;19.218;2024-02-16T00:13:19;72.6;;;44.3;;
41229;SDS011;26964;50.428;19.218;2024-02-16T00:14:19;71.0;;;42.4;;
41229;SDS011;26964;50.428;19.218;2024-02-16T00:15:19;71.7;;;42.3;;
41229;SDS011;26964;50.428;19.218;2024-02-16T00:16:20;64.4;;;40.7;;
41229;SDS011;26964;50.428;19.218;2024-02-16T00:17:21;67.6;;;41.9;;
41229;SDS011;26964;50.428;19.218;2024-02-16T00:18:20;62.7;;;41.2;;
41229;SDS011;26964;50.428;19.218;2024-02-16T00:19:21;71.6;;;42.3;;
41229;SDS011;26964;50.428;19.218;2024-02-16T00:20:19;57.2;;;37.8;;
41229;SDS011;26964;50.428;19.218;2024-02-16T00:21:20;75.8;;;47.9;;
41229;SDS011;26964;50.428;19.218;2024-02-16T00:22:23;69.5;;;43.9;;
41229;SDS011;26964;50.428;19.218;2024-02-16T00:23:19;64.2;;;41.4;;
41229;SDS011;26964;50.428;19.218;2024-02-16T00:24:19;72.6;;;42.4;;
41229;SDS011;26964;50.428;19.218;2024-02-16T00:25:19;62.4;;;40.9;;
41229;SDS011;26964;50.428;19.218;2024-02-16T00:26:19;65.3;;;41.2;;
41229;SDS011;26964;50.428;19.218;2024-02-16T00:27:19;57.2;;;38.4;;
41229;SDS011;26964;50.428;19.218;2024-02-16T00:28:19;59.4;;;37.8;;
41229;SDS011;26964;50.428;19.218;2024-02-16T00:29:19;57.9;;;38.2;;
41229;SDS011;26964;50.428;19.218;2024-02-16T00:30:19;59.6;;;39.1;;
41229;SDS011;26964;50.428;19.218;2024-02-16T00:31:19;55.0;;;36.6;;
41229;SDS011;26964;50.428;19.218;2024-02-16T00:32:19;57.9;;;36.6;;
41229;SDS011;26964;50.428;19.218;2024-02-16T00:33:19;53.5;;;34.9;;
41229;SDS011;26964;50.428;19.218;2024-02-16T00:34:19;54.4;;;35.0;;
41229;SDS011;26964;50.428;19.218;2024-02-16T00:35:19;56.4;;;35.3;;
41229;SDS011;26964;50.428;19.218;2024-02-16T00:36:19;52.1;;;35.0;;
41229;SDS011;26964;50.428;19.218;2024-02-16T00:37:19;51.2;;;33.6;;
41229;SDS011;26964;50.428;19.218;2024-02-16T00:38:19;60.0;;;38.0;;
41229;SDS011;26964;50.428;19.218;2024-02-16T00:39:20;66.9;;;43.3;;
41229;SDS011;26964;50.428;19.218;2024-02-16T00:40:20;152.6;;;78.0;;
41229;SDS011;26964;50.428;19.218;2024-02-16T00:41:21;216.5;;;91.6;;
41229;SDS011;26964;50.428;19.218;2024-02-16T00:42:20;243.6;;;101.0;;
41229;SDS011;26964;50.428;19.218;2024-02-16T00:43:22;265.1;;;110.9;;
41229;SDS011;26964;50.428;19.218;2024-02-16T00:44:20;227.6;;;100.8;;
41229;SDS011;26964;50.428;19.218;2024-02-16T00:45:20;291.5;;;118.8;;
41229;SDS011;26964;50.428;19.218;2024-02-16T00:46:20;332.7;;;129.0;;
41229;SDS011;26964;50.428;19.218;2024-02-16T00:47:20;349.0;;;129.2;;
41229;SDS011;26964;50.428;19.218;2024-02-16T00:48:20;280.7;;;106.8;;
41229;SDS011;26964;50.428;19.218;2024-02-16T00:49:20;308.2;;;117.4;;
41229;SDS011;26964;50.428;19.218;2024-02-16T00:50:20;261.6;;;101.6;;
41229;SDS011;26964;50.428;19.218;2024-02-16T00:51:20;242.2;;;97.5;;
41229;SDS011;26964;50.428;19.218;2024-02-16T00:52:20;194.2;;;80.1;;
41229;SDS011;26964;50.428;19.218;2024-02-16T00:53:20;162.8;;;72.9;;
41229;SDS011;26964;50.428;19.218;2024-02-16T00:54:20;150.4;;;68.1;;
41229;SDS011;26964;50.428;19.218;2024-02-16T00:55:20;147.5;;;67.1;;
41229;SDS011;26964;50.428;19.218;2024-02-16T00:56:19;103.3;;;53.6;;
41229;SDS011;26964;50.428;19.218;2024-02-16T00:57:19;99.6;;;51.0;;
41229;SDS011;26964;50.428;19.218;2024-02-16T00:58:19;93.0;;;48.2;;
41229;SDS011;26964;50.428;19.218;2024-02-16T00:59:19;97.2;;;49.5;;
41229;SDS011;26964;50.428;19.218;2024-02-16T01:00:19;76.0;;;45.4;;
41229;SDS011;26964;50.428;19.218;2024-02-16T01:01:19;88.8;;;47.8;;
41229;SDS011;26964;50.428;19.218;2024-02-16T01:02:19;84.4;;;45.6;;
41229;SDS011;26964;50.428;19.218;2024-02-16T01:03:19;86.2;;;48.3;;
41229;SDS011;26964;50.428;19.218;2024-02-16T01:04:22;86.5;;;45.4;;
41229;SDS011;26964;50.428;19.218;2024-02-16T01:05:19;84.4;;;48.9;;
41229;SDS011;26964;50.428;19.218;2024-02-16T01:06:19;86.2;;;49.6;;
41229;SDS011;26964;50.428;19.218;2024-02-16T01:07:19;89.9;;;49.5;;
41229;SDS011;26964;50.428;19.218;2024-02-16T01:08:19;98.1;;;54.5;;
41229;SDS011;26964;50.428;19.218;2024-02-16T01:09:19;90.7;;;51.8;;
41229;SDS011;26964;50.428;19.218;2024-02-16T01:10:19;85.1;;;49.3;;
41229;SDS011;26964;50.428;19.218;2024-02-16T01:11:19;89.0;;;52.4;;
41229;SDS011;26964;50.428;19.218;2024-02-16T01:12:19;94.1;;;54.0;;
41229;SDS011;26964;50.428;19.218;2024-02-16T01:13:19;88.1;;;53.0;;
41229;SDS011;26964;50.428;19.218;2024-02-16T01:14:19;80.6;;;48.4;;
41229;SDS011;26964;50.428;19.218;2024-02-16T01:15:19;68.2;;;43.5;;
41229;SDS011;26964;50.428;19.218;2024-02-16T01:16:19;66.5;;;41.0;;
41229;SDS011;26964;50.428;19.218;2024-02-16T01:17:19;62.1;;;40.9;;
41229;SDS011;26964;50.428;19.218;2024-02-16T01:18:19;64.2;;;41.3;;
41229;SDS011;26964;50.428;19.218;2024-02-16T01:19:19;58.0;;;36.4;;
41229;SDS011;26964;50.428;19.218;2024-02-16T01:20:20;65.9;;;40.1;;
41229;SDS011;26964;50.428;19.218;2024-02-16T01:21:19;55.3;;;37.9;;
41229;SDS011;26964;50.428;19.218;2024-02-16T01:22:19;61.2;;;39.5;;
41229;SDS011;26964;50.428;19.218;2024-02-16T01:23:19;60.4;;;38.7;;
41229;SDS011;26964;50.428;19.218;2024-02-16T01:24:19;68.0;;;43.4;;
41229;SDS011;26964;50.428;19.218;2024-02-16T01:25:22;65.9;;;42.0;;
41229;SDS011;26964;50.428;19.218;2024-02-16T01:26:19;67.2;;;41.7;;
41229;SDS011;26964;50.428;19.218;2024-02-16T01:27:19;71.4;;;42.8;;
41229;SDS011;26964;50.428;19.218;2024-02-16T01:28:19;79.8;;;48.7;;
41229;SDS011;26964;50.428;19.218;2024-02-16T01:29:19;80.5;;;48.6;;
41229;SDS011;26964;50.428;19.218;2024-02-16T01:30:19;82.4;;;48.4;;
41229;SDS011;26964;50.428;19.218;2024-02-16T01:31:20;78.9;;;48.5;;
41229;SDS011;26964;50.428;19.218;2024-02-16T01:32:19;82.0;;;51.2;;
41229;SDS011;26964;50.428;19.218;2024-02-16T01:33:19;71.5;;;43.6;;
41229;SDS011;26964;50.428;19.218;2024-02-16T01:34:19;65.1;;;42.5;;
41229;SDS011;26964;50.428;19.218;2024-02-16T01:35:19;74.4;;;46.6;;
41229;SDS011;26964;50.428;19.218;2024-02-16T01:36:19;80.3;;;49.7;;
41229;SDS011;26964;50.428;19.218;2024-02-16T01:37:19;70.9;;;45.0;;
41229;SDS011;26964;50.428;19.218;2024-02-16T01:38:19;68.3;;;44.1;;
41229;SDS011;26964;50.428;19.218;2024-02-16T01:39:19;72.8;;;43.4;;
41229;SDS011;26964;50.428;19.218;2024-02-16T01:40:19;71.6;;;42.7;;
41229;SDS011;26964;50.428;19.218;2024-02-16T01:41:19;70.8;;;42.1;;
41229;SDS011;26964;50.428;19.218;2024-02-16T01:42:19;55.8;;;36.4;;
41229;SDS011;26964;50.428;19.218;2024-02-16T01:43:19;54.1;;;36.2;;
41229;SDS011;26964;50.428;19.218;2024-02-16T01:44:19;54.8;;;36.7;;
41229;SDS011;26964;50.428;19.218;2024-02-16T01:45:20;57.2;;;37.9;;
41229;SDS011;26964;50.428;19.218;2024-02-16T01:46:22;65.0;;;41.2;;
41229;SDS011;26964;50.428;19.218;2024-02-16T01:47:19;67.4;;;42.5;;
41229;SDS011;26964;50.428;19.218;2024-02-16T01:48:19;71.0;;;43.2;;
41229;SDS011;26964;50.428;19.218;2024-02-16T01:49:19;67.6;;;42.4;;
41229;SDS011;26964;50.428;19.218;2024-02-16T01:50:19;61.9;;;40.6;;
41229;SDS011;26964;50.428;19.218;2024-02-16T01:51:19;62.9;;;39.1;;
41229;SDS011;26964;50.428;19.218;2024-02-16T01:52:19;61.0;;;37.9;;
41229;SDS011;26964;50.428;19.218;2024-02-16T01:53:19;63.8;;;39.2;;
41229;SDS011;26964;50.428;19.218;2024-02-16T01:54:19;59.0;;;38.2;;
41229;SDS011;26964;50.428;19.218;2024-02-16T01:55:19;56.3;;;36.8;;
41229;SDS011;26964;50.428;19.218;2024-02-16T01:56:19;63.4;;;40.5;;
41229;SDS011;26964;50.428;19.218;2024-02-16T01:57:19;63.2;;;39.4;;
41229;SDS011;26964;50.428;19.218;2024-02-16T01:58:19;67.7;;;41.3;;
41229;SDS011;26964;50.428;19.218;2024-02-16T01:59:19;64.4;;;41.2;;
41229;SDS011;26964;50.428;19.218;2024-02-16T02:00:19;62.5;;;42.0;;
41229;SDS011;26964;50.428;19.218;2024-02-16T02:01:19;65.6;;;39.9;;
41229;SDS011;26964;50.428;19.218;2024-02-16T02:02:19;73.3;;;43.1;;
41229;SDS011;26964;50.428;19.218;2024-02-16T02:03:20;91.9;;;51.5;;
41229;SDS011;26964;50.428;19.218;2024-02-16T02:04:19;104.2;;;53.8;;
41229;SDS011;26964;50.428;19.218;2024-02-16T02:05:19;95.2;;;52.0;;
41229;SDS011;26964;50.428;19.218;2024-02-16T02:06:20;80.9;;;45.9;;
41229;SDS011;26964;50.428;19.218;2024-02-16T02:09:20;105.3;;;58.8;;
41229;SDS011;26964;50.428;19.218;2024-02-16T02:10:20;106.0;;;61.5;;
41229;SDS011;26964;50.428;19.218;2024-02-16T02:11:19;108.9;;;59.7;;
41229;SDS011;26964;50.428;19.218;2024-02-16T02:12:19;91.7;;;54.0;;
41229;SDS011;26964;50.428;19.218;2024-02-16T02:13:19;75.8;;;47.4;;
41229;SDS011;26964;50.428;19.218;2024-02-16T02:14:21;72.2;;;45.8;;
41229;SDS011;26964;50.428;19.218;2024-02-16T02:15:19;64.9;;;41.3;;
41229;SDS011;26964;50.428;19.218;2024-02-16T02:16:19;66.6;;;40.9;;
41229;SDS011;26964;50.428;19.218;2024-02-16T02:17:19;65.4;;;42.2;;
41229;SDS011;26964;50.428;19.218;2024-02-16T02:18:19;63.6;;;41.2;;
41229;SDS011;26964;50.428;19.218;2024-02-16T02:20:20;122.2;;;87.1;;
41229;SDS011;26964;50.428;19.218;2024-02-16T02:21:19;102.2;;;66.5;;
41229;SDS011;26964;50.428;19.218;2024-02-16T02:22:19;82.4;;;54.4;;
41229;SDS011;26964;50.428;19.218;2024-02-16T02:23:19;94.2;;;60.4;;
41229;SDS011;26964;50.428;19.218;2024-02-16T02:24:19;80.9;;;53.9;;
41229;SDS011;26964;50.428;19.218;2024-02-16T02:25:19;83.8;;;51.8;;
41229;SDS011;26964;50.428;19.218;2024-02-16T02:26:20;79.3;;;50.3;;
41229;SDS011;26964;50.428;19.218;2024-02-16T02:27:19;82.2;;;50.3;;
41229;SDS011;26964;50.428;19.218;2024-02-16T02:28:22;80.5;;;49.2;;
41229;SDS011;26964;50.428;19.218;2024-02-16T02:29:19;82.9;;;50.4;;
41229;SDS011;26964;50.428;19.218;2024-02-16T02:30:19;83.9;;;51.2;;
41229;SDS011;26964;50.428;19.218;2024-02-16T02:31:19;84.5;;;54.5;;
41229;SDS011;26964;50.428;19.218;2024-02-16T02:32:19;84.9;;;51.7;;
41229;SDS011;26964;50.428;19.218;2024-02-16T02:33:19;77.4;;;48.4;;
41229;SDS011;26964;50.428;19.218;2024-02-16T02:34:19;77.9;;;46.8;;
41229;SDS011;26964;50.428;19.218;2024-02-16T02:35:19;73.1;;;44.5;;
41229;SDS011;26964;50.428;19.218;2024-02-16T02:36:19;76.0;;;44.8;;
41229;SDS011;26964;50.428;19.218;2024-02-16T02:37:19;63.4;;;42.8;;
41229;SDS011;26964;50.428;19.218;2024-02-16T02:38:19;66.0;;;41.3;;
41229;SDS011;26964;50.428;19.218;2024-02-16T02:39:19;64.3;;;40.9;;
41229;SDS011;26964;50.428;19.218;2024-02-16T02:40:19;62.0;;;39.6;;
41229;SDS011;26964;50.428;19.218;2024-02-16T02:41:19;70.6;;;41.6;;
41229;SDS011;26964;50.428;19.218;2024-02-16T02:42:19;61.3;;;39.0;;
41229;SDS011;26964;50.428;19.218;2024-02-16T02:43:19;59.6;;;39.2;;
41229;SDS011;26964;50.428;19.218;2024-02-16T02:44:19;63.6;;;39.3;;
41229;SDS011;26964;50.428;19.218;2024-02-16T02:45:19;66.8;;;39.6;;
41229;SDS011;26964;50.428;19.218;2024-02-16T02:46:19;84.4;;;50.1;;
41229;SDS011;26964;50.428;19.218;2024-02-16T02:47:19;97.5;;;57.1;;
41229;SDS011;26964;50.428;19.218;2024-02-16T02:48:19;87.2;;;51.2;;
41229;SDS011;26964;50.428;19.218;2024-02-16T02:49:22;77.8;;;46.9;;
41229;SDS011;26964;50.428;19.218;2024-02-16T02:50:19;70.7;;;41.1;;
41229;SDS011;26964;50.428;19.218;2024-02-16T02:51:19;58.0;;;37.6;;
41229;SDS011;26964;50.428;19.218;2024-02-16T02:52:20;62.9;;;39.3;;
41229;SDS011;26964;50.428;19.218;2024-02-16T02:53:19;68.9;;;42.4;;
41229;SDS011;26964;50.428;19.218;2024-02-16T02:54:19;62.8;;;38.3;;
41229;SDS011;26964;50.428;19.218;2024-02-16T02:55:20;70.1;;;40.3;;
41229;SDS011;26964;50.428;19.218;2024-02-16T02:56:20;156.0;;;80.3;;
41229;SDS011;26964;50.428;19.218;2024-02-16T02:57:21;172.3;;;85.7;;
41229;SDS011;26964;50.428;19.218;2024-02-16T02:58:20;161.3;;;81.8;;
41229;SDS011;26964;50.428;19.218;2024-02-16T02:59:20;150.9;;;76.4;;
41229;SDS011;26964;50.428;19.218;2024-02-16T03:00:20;141.8;;;72.6;;
41229;SDS011;26964;50.428;19.218;2024-02-16T03:01:20;128.4;;;69.6;;
41229;SDS011;26964;50.428;19.218;2024-02-16T03:02:20;113.2;;;62.9;;
41229;SDS011;26964;50.428;19.218;2024-02-16T03:03:20;112.6;;;61.4;;
41229;SDS011;26964;50.428;19.218;2024-02-16T03:04:20;113.7;;;59.7;;
41229;SDS011;26964;50.428;19.218;2024-02-16T03:05:19;102.5;;;57.3;;
41229;SDS011;26964;50.428;19.218;2024-02-16T03:06:20;102.5;;;56.9;;
41229;SDS011;26964;50.428;19.218;2024-02-16T03:07:19;107.4;;;58.6;;
41229;SDS011;26964;50.428;19.218;2024-02-16T03:08:19;95.1;;;53.5;;
41229;SDS011;26964;50.428;19.218;2024-02-16T03:09:19;95.6;;;54.0;;
41229;SDS011;26964;50.428;19.218;2024-02-16T03:10:22;91.6;;;52.1;;
41229;SDS011;26964;50.428;19.218;2024-02-16T03:11:19;90.3;;;51.7;;
41229;SDS011;26964;50.428;19.218;2024-02-16T03:12:19;83.5;;;50.2;;
41229;SDS011;26964;50.428;19.218;2024-02-16T03:13:19;87.5;;;52.1;;
41229;SDS011;26964;50.428;19.218;2024-02-16T03:14:19;83.7;;;49.4;;
41229;SDS011;26964;50.428;19.218;2024-02-16T03:15:19;80.5;;;47.2;;
41229;SDS011;26964;50.428;19.218;2024-02-16T03:16:19;82.6;;;45.2;;
41229;SDS011;26964;50.428;19.218;2024-02-16T03:17:19;70.9;;;42.8;;
41229;SDS011;26964;50.428;19.218;2024-02-16T03:18:19;68.0;;;41.5;;
41229;SDS011;26964;50.428;19.218;2024-02-16T03:19:19;68.4;;;41.2;;
41229;SDS011;26964;50.428;19.218;2024-02-16T03:20:19;73.1;;;44.4;;
41229;SDS011;26964;50.428;19.218;2024-02-16T03:21:19;69.3;;;42.6;;
41229;SDS011;26964;50.428;19.218;2024-02-16T03:22:20;67.6;;;39.5;;
41229;SDS011;26964;50.428;19.218;2024-02-16T03:23:19;67.5;;;42.5;;
41229;SDS011;26964;50.428;19.218;2024-02-16T03:24:19;68.3;;;43.3;;
41229;SDS011;26964;50.428;19.218;2024-02-16T03:25:19;63.9;;;38.1;;
41229;SDS011;26964;50.428;19.218;2024-02-16T03:26:19;61.7;;;37.6;;
41229;SDS011;26964;50.428;19.218;2024-02-16T03:27:19;68.5;;;42.1;;
41229;SDS011;26964;50.428;19.218;2024-02-16T03:28:19;61.7;;;36.3;;
41229;SDS011;26964;50.428;19.218;2024-02-16T03:29:19;61.0;;;36.2;;
41229;SDS011;26964;50.428;19.218;2024-02-16T03:30:20;70.4;;;35.0;;
41229;SDS011;26964;50.428;19.218;2024-02-16T03:31:23;62.2;;;36.1;;
41229;SDS011;26964;50.428;19.218;2024-02-16T03:32:19;62.3;;;35.5;;
41229;SDS011;26964;50.428;19.218;2024-02-16T03:33:20;65.0;;;37.7;;
41229;SDS011;26964;50.428;19.218;2024-02-16T03:34:19;54.9;;;33.8;;
41229;SDS011;26964;50.428;19.218;2024-02-16T03:35:19;56.3;;;33.8;;
41229;SDS011;26964;50.428;19.218;2024-02-16T03:36:19;63.0;;;34.1;;
41229;SDS011;26964;50.428;19.218;2024-02-16T03:37:19;58.2;;;33.1;;
41229;SDS011;26964;50.428;19.218;2024-02-16T03:38:19;52.9;;;32.4;;
41229;SDS011;26964;50.428;19.218;2024-02-16T03:39:19;56.0;;;31.2;;
41229;SDS011;26964;50.428;19.218;2024-02-16T03:40:19;52.5;;;32.0;;
41229;SDS011;26964;50.428;19.218;2024-02-16T03:41:20;55.6;;;30.9;;
41229;SDS011;26964;50.428;19.218;2024-02-16T03:42:19;54.8;;;29.2;;
41229;SDS011;26964;50.428;19.218;2024-02-16T03:43:19;51.0;;;28.8;;
41229;SDS011;26964;50.428;19.218;2024-02-16T03:44:19;51.5;;;29.6;;
41229;SDS011;26964;50.428;19.218;2024-02-16T03:45:19;49.1;;;28.4;;
41229;SDS011;26964;50.428;19.218;2024-02-16T03:46:19;51.3;;;30.2;;
41229;SDS011;26964;50.428;19.218;2024-02-16T03:47:19;47.0;;;28.4;;
41229;SDS011;26964;50.428;19.218;2024-02-16T03:48:19;48.9;;;28.3;;
41229;SDS011;26964;50.428;19.218;2024-02-16T03:49:19;48.6;;;27.9;;
41229;SDS011;26964;50.428;19.218;2024-02-16T03:50:19;45.5;;;27.6;;
41229;SDS011;26964;50.428;19.218;2024-02-16T03:51:20;45.0;;;26.9;;
41229;SDS011;26964;50.428;19.218;2024-02-16T03:52:19;47.8;;;28.4;;
41229;SDS011;26964;50.428;19.218;2024-02-16T03:53:19;40.9;;;25.0;;
41229;SDS011;26964;50.428;19.218;2024-02-16T03:54:19;46.3;;;26.5;;
41229;SDS011;26964;50.428;19.218;2024-02-16T03:55:19;46.1;;;27.2;;
41229;SDS011;26964;50.428;19.218;2024-02-16T03:56:19;45.9;;;26.3;;
41229;SDS011;26964;50.428;19.218;2024-02-16T03:57:19;47.9;;;26.4;;
41229;SDS011;26964;50.428;19.218;2024-02-16T03:58:19;45.6;;;26.3;;
41229;SDS011;26964;50.428;19.218;2024-02-16T03:59:19;44.1;;;25.9;;
41229;SDS011;26964;50.428;19.218;2024-02-16T04:00:19;47.4;;;26.5;;
41229;SDS011;26964;50.428;19.218;2024-02-16T04:01:19;43.4;;;26.8;;
41229;SDS011;26964;50.428;19.218;2024-02-16T04:02:19;42.6;;;25.3;;
41229;SDS011;26964;50.428;19.218;2024-02-16T04:03:19;50.5;;;27.8;;
41229;SDS011;26964;50.428;19.218;2024-02-16T04:04:19;45.5;;;24.9;;
41229;SDS011;26964;50.428;19.218;2024-02-16T04:05:19;58.4;;;30.2;;
41229;SDS011;26964;50.428;19.218;2024-02-16T04:06:19;74.8;;;33.8;;
41229;SDS011;26964;50.428;19.218;2024-02-16T04:07:19;70.6;;;32.5;;
41229;SDS011;26964;50.428;19.218;2024-02-16T04:08:20;91.9;;;39.2;;
41229;SDS011;26964;50.428;19.218;2024-02-16T04:09:20;102.9;;;44.3;;
41229;SDS011;26964;50.428;19.218;2024-02-16T04:10:20;121.0;;;49.5;;
41229;SDS011;26964;50.428;19.218;2024-02-16T04:11:21;103.1;;;44.2;;
41229;SDS011;26964;50.428;19.218;2024-02-16T04:12:21;102.2;;;43.9;;
41229;SDS011;26964;50.428;19.218;2024-02-16T04:14:20;110.3;;;44.2;;
41229;SDS011;26964;50.428;19.218;2024-02-16T04:15:20;104.4;;;43.8;;
41229;SDS011;26964;50.428;19.218;2024-02-16T04:16:20;107.0;;;43.8;;
41229;SDS011;26964;50.428;19.218;2024-02-16T04:17:19;100.9;;;44.1;;
41229;SDS011;26964;50.428;19.218;2024-02-16T04:18:20;97.3;;;40.7;;
41229;SDS011;26964;50.428;19.218;2024-02-16T04:19:20;101.1;;;43.7;;
41229;SDS011;26964;50.428;19.218;2024-02-16T04:20:19;107.6;;;45.7;;
41229;SDS011;26964;50.428;19.218;2024-02-16T04:21:19;59.5;;;30.5;;
41229;SDS011;26964;50.428;19.218;2024-02-16T04:22:19;48.4;;;28.1;;
41229;SDS011;26964;50.428;19.218;2024-02-16T04:23:19;54.5;;;29.5;;
41229;SDS011;26964;50.428;19.218;2024-02-16T04:24:19;45.9;;;25.5;;
41229;SDS011;26964;50.428;19.218;2024-02-16T04:25:19;50.4;;;27.7;;
41229;SDS011;26964;50.428;19.218;2024-02-16T04:26:19;64.2;;;31.0;;
41229;SDS011;26964;50.428;19.218;2024-02-16T04:27:19;73.9;;;34.4;;
41229;SDS011;26964;50.428;19.218;2024-02-16T04:28:19;74.0;;;36.8;;
41229;SDS011;26964;50.428;19.218;2024-02-16T04:29:19;71.9;;;37.6;;
41229;SDS011;26964;50.428;19.218;2024-02-16T04:30:19;76.7;;;38.9;;
41229;SDS011;26964;50.428;19.218;2024-02-16T04:31:19;85.7;;;42.2;;
41229;SDS011;26964;50.428;19.218;2024-02-16T04:32:20;82.5;;;38.5;;
41229;SDS011;26964;50.428;19.218;2024-02-16T04:33:19;68.0;;;35.5;;
41229;SDS011;26964;50.428;19.218;2024-02-16T04:34:19;71.7;;;34.6;;
41229;SDS011;26964;50.428;19.218;2024-02-16T04:35:19;63.4;;;33.1;;
41229;SDS011;26964;50.428;19.218;2024-02-16T04:36:19;76.1;;;36.5;;
41229;SDS011;26964;50.428;19.218;2024-02-16T04:37:19;66.9;;;34.2;;
41229;SDS011;26964;50.428;19.218;2024-02-16T04:38:19;64.1;;;33.0;;
41229;SDS011;26964;50.428;19.218;2024-02-16T04:39:19;61.0;;;32.4;;
41229;SDS011;26964;50.428;19.218;2024-02-16T04:40:19;65.0;;;33.6;;
41229;SDS011;26964;50.428;19.218;2024-02-16T04:41:19;69.6;;;34.8;;
41229;SDS011;26964;50.428;19.218;2024-02-16T04:42:19;74.6;;;34.8;;
41229;SDS011;26964;50.428;19.218;2024-02-16T04:43:19;62.4;;;33.2;;
41229;SDS011;26964;50.428;19.218;2024-02-16T04:44:19;70.2;;;34.2;;
41229;SDS011;26964;50.428;19.218;2024-02-16T04:45:19;84.2;;;39.8;;
41229;SDS011;26964;50.428;19.218;2024-02-16T04:46:23;95.5;;;45.9;;
41229;SDS011;26964;50.428;19.218;2024-02-16T04:47:20;108.8;;;50.9;;
41229;SDS011;26964;50.428;19.218;2024-02-16T04:48:20;133.2;;;60.0;;
41229;SDS011;26964;50.428;19.218;2024-02-16T04:49:20;132.2;;;61.2;;
41229;SDS011;26964;50.428;19.218;2024-02-16T04:50:20;132.9;;;62.6;;
41229;SDS011;26964;50.428;19.218;2024-02-16T04:51:20;148.2;;;68.0;;
41229;SDS011;26964;50.428;19.218;2024-02-16T04:52:20;144.1;;;63.9;;
41229;SDS011;26964;50.428;19.218;2024-02-16T04:53:21;139.4;;;63.2;;
41229;SDS011;26964;50.428;19.218;2024-02-16T04:55:20;132.6;;;58.2;;
41229;SDS011;26964;50.428;19.218;2024-02-16T04:56:20;119.7;;;56.4;;
41229;SDS011;26964;50.428;19.218;2024-02-16T04:57:20;116.2;;;54.3;;
41229;SDS011;26964;50.428;19.218;2024-02-16T04:58:20;120.8;;;54.3;;
41229;SDS011;26964;50.428;19.218;2024-02-16T04:59:20;104.9;;;50.0;;
41229;SDS011;26964;50.428;19.218;2024-02-16T05:00:19;104.7;;;49.9;;
41229;SDS011;26964;50.428;19.218;2024-02-16T05:01:19;91.7;;;46.2;;
41229;SDS011;26964;50.428;19.218;2024-02-16T05:02:19;91.5;;;44.7;;
41229;SDS011;26964;50.428;19.218;2024-02-16T05:03:19;92.8;;;45.7;;
41229;SDS011;26964;50.428;19.218;2024-02-16T05:04:19;87.1;;;44.3;;
41229;SDS011;26964;50.428;19.218;2024-02-16T05:05:19;91.7;;;45.6;;
41229;SDS011;26964;50.428;19.218;2024-02-16T05:06:19;93.6;;;44.7;;
41229;SDS011;26964;50.428;19.218;2024-02-16T05:07:19;95.2;;;43.2;;
41229;SDS011;26964;50.428;19.218;2024-02-16T05:09:19;71.9;;;38.8;;
41229;SDS011;26964;50.428;19.218;2024-02-16T05:10:19;72.8;;;38.5;;
41229;SDS011;26964;50.428;19.218;2024-02-16T05:11:19;72.3;;;38.5;;
41229;SDS011;26964;50.428;19.218;2024-02-16T05:12:19;66.7;;;36.2;;
41229;SDS011;26964;50.428;19.218;2024-02-16T05:13:19;64.1;;;36.9;;
41229;SDS011;26964;50.428;19.218;2024-02-16T05:14:20;65.8;;;36.2;;
41229;SDS011;26964;50.428;19.218;2024-02-16T05:15:19;70.2;;;39.7;;
41229;SDS011;26964;50.428;19.218;2024-02-16T05:16:19;65.8;;;36.9;;
41229;SDS011;26964;50.428;19.218;2024-02-16T05:17:19;61.4;;;36.7;;
41229;SDS011;26964;50.428;19.218;2024-02-16T05:18:21;68.9;;;38.9;;
41229;SDS011;26964;50.428;19.218;2024-02-16T05:19:19;61.2;;;36.9;;
41229;SDS011;26964;50.428;19.218;2024-02-16T05:20:19;65.1;;;37.3;;
41229;SDS011;26964;50.428;19.218;2024-02-16T05:21:19;61.0;;;36.7;;
41229;SDS011;26964;50.428;19.218;2024-02-16T05:22:19;59.3;;;37.1;;
41229;SDS011;26964;50.428;19.218;2024-02-16T05:23:19;63.3;;;36.8;;
41229;SDS011;26964;50.428;19.218;2024-02-16T05:24:19;61.2;;;38.3;;
41229;SDS011;26964;50.428;19.218;2024-02-16T05:25:19;60.9;;;39.3;;
41229;SDS011;26964;50.428;19.218;2024-02-16T05:26:19;68.5;;;43.4;;
41229;SDS011;26964;50.428;19.218;2024-02-16T05:27:19;72.9;;;44.3;;
41229;SDS011;26964;50.428;19.218;2024-02-16T05:28:19;69.9;;;45.6;;
41229;SDS011;26964;50.428;19.218;2024-02-16T05:29:19;67.0;;;44.1;;
41229;SDS011;26964;50.428;19.218;2024-02-16T05:30:19;60.5;;;38.1;;
41229;SDS011;26964;50.428;19.218;2024-02-16T05:31:19;68.9;;;41.4;;
41229;SDS011;26964;50.428;19.218;2024-02-16T05:32:19;70.2;;;42.1;;
41229;SDS011;26964;50.428;19.218;2024-02-16T05:33:19;67.7;;;44.2;;
41229;SDS011;26964;50.428;19.218;2024-02-16T05:34:19;62.9;;;42.2;;
41229;SDS011;26964;50.428;19.218;2024-02-16T05:35:21;81.7;;;55.6;;
41229;SDS011;26964;50.428;19.218;2024-02-16T05:36:20;97.5;;;65.3;;
41229;SDS011;26964;50.428;19.218;2024-02-16T05:37:19;104.1;;;64.6;;
41229;SDS011;26964;50.428;19.218;2024-02-16T05:38:20;96.0;;;65.9;;
41229;SDS011;26964;50.428;19.218;2024-02-16T05:39:20;110.2;;;74.6;;
41229;SDS011;26964;50.428;19.218;2024-02-16T05:40:20;147.2;;;97.8;;
41229;SDS011;26964;50.428;19.218;2024-02-16T05:41:20;146.2;;;97.7;;
41229;SDS011;26964;50.428;19.218;2024-02-16T05:42:20;177.0;;;111.7;;
41229;SDS011;26964;50.428;19.218;2024-02-16T05:43:20;182.0;;;110.2;;
41229;SDS011;26964;50.428;19.218;2024-02-16T05:44:20;165.0;;;102.6;;
41229;SDS011;26964;50.428;19.218;2024-02-16T05:45:20;170.7;;;104.8;;
41229;SDS011;26964;50.428;19.218;2024-02-16T05:46:20;152.2;;;93.5;;
41229;SDS011;26964;50.428;19.218;2024-02-16T05:47:20;140.9;;;87.1;;
41229;SDS011;26964;50.428;19.218;2024-02-16T05:48:20;149.3;;;90.5;;
41229;SDS011;26964;50.428;19.218;2024-02-16T05:49:20;136.7;;;84.9;;
41229;SDS011;26964;50.428;19.218;2024-02-16T05:50:20;134.0;;;77.1;;
41229;SDS011;26964;50.428;19.218;2024-02-16T05:51:20;120.4;;;70.4;;
41229;SDS011;26964;50.428;19.218;2024-02-16T05:52:20;127.2;;;73.9;;
41229;SDS011;26964;50.428;19.218;2024-02-16T05:53:20;119.4;;;68.5;;
41229;SDS011;26964;50.428;19.218;2024-02-16T05:54:20;117.2;;;70.2;;
41229;SDS011;26964;50.428;19.218;2024-02-16T05:55:20;109.8;;;62.1;;
41229;SDS011;26964;50.428;19.218;2024-02-16T05:56:20;106.0;;;59.9;;
41229;SDS011;26964;50.428;19.218;2024-02-16T05:57:19;88.3;;;52.6;;
41229;SDS011;26964;50.428;19.218;2024-02-16T05:58:19;98.0;;;56.6;;
41229;SDS011;26964;50.428;19.218;2024-02-16T05:59:19;88.3;;;47.6;;
41229;SDS011;26964;50.428;19.218;2024-02-16T06:00:19;90.1;;;51.2;;
41229;SDS011;26964;50.428;19.218;2024-02-16T06:01:19;87.3;;;47.8;;